sensor_id;sensor_type;location;lat;lon;timestamp;pressure;altitude;pressure_sealevel;temperature;humidity
5966;BME280;3009;43.224;27.976;2023-01-27T00:01:08;100067.84;;;6.54;100.00
5966;BME280;3009;43.224;27.976;2023-01-27T00:03:36;100062.72;;;6.57;100.00
5966;BME280;3009;43.224;27.976;2023-01-27T00:06:05;100075.56;;;6.55;100.00
5966;BME280;3009;43.224;27.976;2023-01-27T00:08:38;100069.13;;;6.56;100.00
5966;BME280;3009;43.224;27.976;2023-01-27T00:11:06;100063.00;;;6.56;100.00
5966;BME280;3009;43.224;27.976;2023-01-27T00:13:54;100044.06;;;6.57;100.00
5966;BME280;3009;43.224;27.976;2023-01-27T00:16:22;100035.00;;;6.59;100.00
5966;BME280;3009;43.224;27.976;2023-01-27T00:18:50;100037.69;;;6.59;100.00
5966;BME280;3009;43.224;27.976;2023-01-27T00:21:18;100027.31;;;6.57;100.00
5966;BME280;3009;43.224;27.976;2023-01-27T00:24:04;100035.50;;;6.61;100.00
5966;BME280;3009;43.224;27.976;2023-01-27T00:26:50;100033.63;;;6.61;100.00
5966;BME280;3009;43.224;27.976;2023-01-27T00:29:19;100049.13;;;6.59;100.00
5966;BME280;3009;43.224;27.976;2023-01-27T00:31:47;100050.91;;;6.64;100.00
5966;BME280;3009;43.224;27.976;2023-01-27T00:34:33;100038.66;;;6.63;100.00
5966;BME280;3009;43.224;27.976;2023-01-27T00:37:01;100048.03;;;6.60;100.00
5966;BME280;3009;43.224;27.976;2023-01-27T00:39:30;100053.00;;;6.67;100.00
5966;BME280;3009;43.224;27.976;2023-01-27T00:41:58;100056.25;;;6.64;100.00
5966;BME280;3009;43.224;27.976;2023-01-27T00:44:27;100040.25;;;6.64;100.00
5966;BME280;3009;43.224;27.976;2023-01-27T00:46:56;100030.38;;;6.64;100.00
5966;BME280;3009;43.224;27.976;2023-01-27T00:49:25;100029.59;;;6.64;100.00
5966;BME280;3009;43.224;27.976;2023-01-27T00:51:53;100029.03;;;6.67;100.00
5966;BME280;3009;43.224;27.976;2023-01-27T00:54:21;100033.34;;;6.63;100.00
5966;BME280;3009;43.224;27.976;2023-01-27T00:56:49;100018.44;;;6.62;100.00
5966;BME280;3009;43.224;27.976;2023-01-27T00:59:18;100038.38;;;6.64;100.00
5966;BME280;3009;43.224;27.976;2023-01-27T01:01:47;100024.78;;;6.66;100.00
5966;BME280;3009;43.224;27.976;2023-01-27T01:04:16;100021.31;;;6.65;100.00
5966;BME280;3009;43.224;27.976;2023-01-27T01:06:44;100010.38;;;6.67;100.00
5966;BME280;3009;43.224;27.976;2023-01-27T01:09:12;100018.66;;;6.65;100.00
5966;BME280;3009;43.224;27.976;2023-01-27T01:11:40;100018.94;;;6.64;100.00
5966;BME280;3009;43.224;27.976;2023-01-27T01:14:08;100027.66;;;6.69;100.00
5966;BME280;3009;43.224;27.976;2023-01-27T01:16:37;100018.06;;;6.68;100.00
5966;BME280;3009;43.224;27.976;2023-01-27T01:19:06;100009.88;;;6.65;100.00
5966;BME280;3009;43.224;27.976;2023-01-27T01:21:36;100014.41;;;6.64;100.00
5966;BME280;3009;43.224;27.976;2023-01-27T01:24:06;100029.31;;;6.65;100.00
5966;BME280;3009;43.224;27.976;2023-01-27T01:26:35;100014.63;;;6.68;100.00
5966;BME280;3009;43.224;27.976;2023-01-27T01:29:03;99997.34;;;6.65;100.00
5966;BME280;3009;43.224;27.976;2023-01-27T01:31:31;100015.69;;;6.67;100.00
5966;BME280;3009;43.224;27.976;2023-01-27T01:33:59;99990.94;;;6.66;100.00
5966;BME280;3009;43.224;27.976;2023-01-27T01:36:29;100006.91;;;6.66;100.00
5966;BME280;3009;43.224;27.976;2023-01-27T01:38:57;100010.88;;;6.69;100.00
5966;BME280;3009;43.224;27.976;2023-01-27T01:41:25;99993.81;;;6.70;100.00
5966;BME280;3009;43.224;27.976;2023-01-27T01:43:54;99995.19;;;6.67;100.00
5966;BME280;3009;43.224;27.976;2023-01-27T01:46:22;99979.22;;;6.67;100.00
5966;BME280;3009;43.224;27.976;2023-01-27T01:48:52;100001.59;;;6.66;100.00
5966;BME280;3009;43.224;27.976;2023-01-27T01:51:24;99988.75;;;6.68;100.00
5966;BME280;3009;43.224;27.976;2023-01-27T01:53:57;99996.47;;;6.70;100.00
5966;BME280;3009;43.224;27.976;2023-01-27T01:56:31;99987.97;;;6.68;100.00
5966;BME280;3009;43.224;27.976;2023-01-27T01:59:04;99986.91;;;6.69;100.00
5966;BME280;3009;43.224;27.976;2023-01-27T02:01:34;99981.50;;;6.74;100.00
5966;BME280;3009;43.224;27.976;2023-01-27T02:04:06;99976.75;;;6.71;100.00
5966;BME280;3009;43.224;27.976;2023-01-27T02:06:39;99969.03;;;6.69;100.00
5966;BME280;3009;43.224;27.976;2023-01-27T02:09:11;99961.81;;;6.70;100.00
5966;BME280;3009;43.224;27.976;2023-01-27T02:11:39;99950.69;;;6.68;100.00
5966;BME280;3009;43.224;27.976;2023-01-27T02:14:08;99948.72;;;6.73;100.00
5966;BME280;3009;43.224;27.976;2023-01-27T02:16:37;99946.94;;;6.69;100.00
5966;BME280;3009;43.224;27.976;2023-01-27T02:19:07;99945.84;;;6.70;100.00
5966;BME280;3009;43.224;27.976;2023-01-27T02:21:37;99954.06;;;6.73;100.00
5966;BME280;3009;43.224;27.976;2023-01-27T02:24:05;99944.47;;;6.72;100.00
5966;BME280;3009;43.224;27.976;2023-01-27T02:26:41;99924.75;;;6.73;100.00
5966;BME280;3009;43.224;27.976;2023-01-27T02:29:12;99921.28;;;6.73;100.00
5966;BME280;3009;43.224;27.976;2023-01-27T02:31:40;99917.66;;;6.69;100.00
5966;BME280;3009;43.224;27.976;2023-01-27T02:34:11;99915.56;;;6.66;100.00
5966;BME280;3009;43.224;27.976;2023-01-27T02:36:44;99913.97;;;6.65;100.00
5966;BME280;3009;43.224;27.976;2023-01-27T02:39:15;99889.19;;;6.64;100.00
5966;BME280;3009;43.224;27.976;2023-01-27T02:41:47;99885.25;;;6.62;100.00
5966;BME280;3009;43.224;27.976;2023-01-27T02:44:16;99888.41;;;6.64;100.00
5966;BME280;3009;43.224;27.976;2023-01-27T02:46:45;99879.63;;;6.63;100.00
5966;BME280;3009;43.224;27.976;2023-01-27T02:49:13;99882.00;;;6.65;100.00
5966;BME280;3009;43.224;27.976;2023-01-27T02:51:42;99885.75;;;6.64;100.00
5966;BME280;3009;43.224;27.976;2023-01-27T02:54:10;99889.47;;;6.63;100.00
5966;BME280;3009;43.224;27.976;2023-01-27T02:56:38;99889.47;;;6.63;100.00
5966;BME280;3009;43.224;27.976;2023-01-27T02:59:07;99872.94;;;6.66;100.00
5966;BME280;3009;43.224;27.976;2023-01-27T03:01:36;99874.50;;;6.67;100.00
5966;BME280;3009;43.224;27.976;2023-01-27T03:04:04;99855.38;;;6.65;100.00
5966;BME280;3009;43.224;27.976;2023-01-27T03:06:34;99858.50;;;6.67;100.00
5966;BME280;3009;43.224;27.976;2023-01-27T03:09:02;99847.06;;;6.66;100.00
5966;BME280;3009;43.224;27.976;2023-01-27T03:11:31;99837.72;;;6.69;100.00
5966;BME280;3009;43.224;27.976;2023-01-27T03:14:23;99843.03;;;6.69;100.00
5966;BME280;3009;43.224;27.976;2023-01-27T03:17:09;99830.50;;;6.69;100.00
5966;BME280;3009;43.224;27.976;2023-01-27T03:19:54;99838.78;;;6.68;100.00
5966;BME280;3009;43.224;27.976;2023-01-27T03:22:22;99828.63;;;6.70;100.00
5966;BME280;3009;43.224;27.976;2023-01-27T03:24:51;99805.22;;;6.67;100.00
5966;BME280;3009;43.224;27.976;2023-01-27T03:27:20;99804.75;;;6.65;100.00
5966;BME280;3009;43.224;27.976;2023-01-27T03:29:49;99799.59;;;6.68;100.00
5966;BME280;3009;43.224;27.976;2023-01-27T03:32:25;99779.97;;;6.64;100.00
5966;BME280;3009;43.224;27.976;2023-01-27T03:34:54;99765.50;;;6.70;100.00
5966;BME280;3009;43.224;27.976;2023-01-27T03:37:24;99785.03;;;6.66;100.00
5966;BME280;3009;43.224;27.976;2023-01-27T03:40:11;99778.88;;;6.65;100.00
5966;BME280;3009;43.224;27.976;2023-01-27T03:42:57;99795.94;;;6.64;100.00
5966;BME280;3009;43.224;27.976;2023-01-27T03:45:47;99807.59;;;6.68;100.00
5966;BME280;3009;43.224;27.976;2023-01-27T03:48:33;99797.34;;;6.62;100.00
5966;BME280;3009;43.224;27.976;2023-01-27T03:51:03;99809.09;;;6.61;100.00
5966;BME280;3009;43.224;27.976;2023-01-27T03:53:36;99824.00;;;6.62;100.00
5966;BME280;3009;43.224;27.976;2023-01-27T03:56:05;99848.75;;;6.62;100.00
5966;BME280;3009;43.224;27.976;2023-01-27T03:58:36;99843.13;;;6.64;100.00
5966;BME280;3009;43.224;27.976;2023-01-27T04:01:11;99843.34;;;6.67;100.00
5966;BME280;3009;43.224;27.976;2023-01-27T04:03:40;99845.13;;;6.72;100.00
5966;BME280;3009;43.224;27.976;2023-01-27T04:06:27;99848.06;;;6.70;100.00
5966;BME280;3009;43.224;27.976;2023-01-27T04:09:17;99826.66;;;6.76;100.00
5966;BME280;3009;43.224;27.976;2023-01-27T04:11:46;99817.88;;;6.75;100.00
5966;BME280;3009;43.224;27.976;2023-01-27T04:14:26;99811.97;;;6.78;100.00
5966;BME280;3009;43.224;27.976;2023-01-27T04:16:58;99802.69;;;6.76;100.00
5966;BME280;3009;43.224;27.976;2023-01-27T04:19:27;99813.53;;;6.79;100.00
5966;BME280;3009;43.224;27.976;2023-01-27T04:21:56;99802.88;;;6.79;100.00
5966;BME280;3009;43.224;27.976;2023-01-27T04:24:25;99823.69;;;6.77;100.00
5966;BME280;3009;43.224;27.976;2023-01-27T04:26:55;99819.38;;;6.81;100.00
5966;BME280;3009;43.224;27.976;2023-01-27T04:29:24;99814.34;;;6.80;100.00
5966;BME280;3009;43.224;27.976;2023-01-27T04:31:54;99802.78;;;6.84;100.00
5966;BME280;3009;43.224;27.976;2023-01-27T04:34:26;99787.28;;;6.86;100.00
5966;BME280;3009;43.224;27.976;2023-01-27T04:36:54;99793.50;;;6.82;100.00
5966;BME280;3009;43.224;27.976;2023-01-27T04:39:23;99775.03;;;6.85;100.00
5966;BME280;3009;43.224;27.976;2023-01-27T04:41:51;99785.22;;;6.83;100.00
5966;BME280;3009;43.224;27.976;2023-01-27T04:44:20;99782.53;;;6.83;100.00
5966;BME280;3009;43.224;27.976;2023-01-27T04:46:48;99776.13;;;6.84;100.00
5966;BME280;3009;43.224;27.976;2023-01-27T04:49:17;99783.53;;;6.87;100.00
5966;BME280;3009;43.224;27.976;2023-01-27T04:51:46;99787.28;;;6.86;100.00
5966;BME280;3009;43.224;27.976;2023-01-27T04:54:14;99787.78;;;6.88;100.00
5966;BME280;3009;43.224;27.976;2023-01-27T04:56:55;99785.59;;;6.90;100.00
5966;BME280;3009;43.224;27.976;2023-01-27T04:59:23;99785.38;;;6.87;100.00
5966;BME280;3009;43.224;27.976;2023-01-27T05:01:57;99762.22;;;6.87;100.00
5966;BME280;3009;43.224;27.976;2023-01-27T05:04:26;99769.69;;;6.85;100.00
5966;BME280;3009;43.224;27.976;2023-01-27T05:06:55;99769.69;;;6.85;100.00
5966;BME280;3009;43.224;27.976;2023-01-27T05:09:24;99770.81;;;6.84;100.00
5966;BME280;3009;43.224;27.976;2023-01-27T05:11:52;99768.13;;;6.84;100.00
5966;BME280;3009;43.224;27.976;2023-01-27T05:14:20;99770.28;;;6.82;100.00
5966;BME280;3009;43.224;27.976;2023-01-27T05:16:49;99778.81;;;6.84;100.00
5966;BME280;3009;43.224;27.976;2023-01-27T05:19:17;99762.22;;;6.87;100.00
5966;BME280;3009;43.224;27.976;2023-01-27T05:21:45;99760.31;;;6.88;100.00
5966;BME280;3009;43.224;27.976;2023-01-27T05:24:15;99746.22;;;6.87;100.00
5966;BME280;3009;43.224;27.976;2023-01-27T05:26:43;99762.41;;;6.91;100.00
5966;BME280;3009;43.224;27.976;2023-01-27T05:29:12;99754.22;;;6.87;100.00
5966;BME280;3009;43.224;27.976;2023-01-27T05:31:40;99763.81;;;6.88;100.00
5966;BME280;3009;43.224;27.976;2023-01-27T05:34:08;99763.50;;;6.90;100.00
5966;BME280;3009;43.224;27.976;2023-01-27T05:36:37;99744.84;;;6.90;100.00
5966;BME280;3009;43.224;27.976;2023-01-27T05:39:05;99742.97;;;6.90;100.00
5966;BME280;3009;43.224;27.976;2023-01-27T05:41:36;99743.84;;;7.00;100.00
5966;BME280;3009;43.224;27.976;2023-01-27T05:44:04;99752.44;;;6.97;100.00
5966;BME280;3009;43.224;27.976;2023-01-27T05:46:36;99750.84;;;6.96;100.00
5966;BME280;3009;43.224;27.976;2023-01-27T05:49:05;99764.66;;;6.98;100.00
5966;BME280;3009;43.224;27.976;2023-01-27T05:51:35;99748.69;;;6.98;100.00
5966;BME280;3009;43.224;27.976;2023-01-27T05:54:05;99732.19;;;6.96;100.00
5966;BME280;3009;43.224;27.976;2023-01-27T05:56:35;99734.84;;;6.96;100.00
5966;BME280;3009;43.224;27.976;2023-01-27T05:59:03;99743.34;;;6.98;100.00
5966;BME280;3009;43.224;27.976;2023-01-27T06:01:33;99751.94;;;6.95;100.00
5966;BME280;3009;43.224;27.976;2023-01-27T06:04:03;99752.91;;;6.99;100.00
5966;BME280;3009;43.224;27.976;2023-01-27T06:06:32;99743.66;;;6.96;100.00
5966;BME280;3009;43.224;27.976;2023-01-27T06:09:00;99745.72;;;6.99;100.00
5966;BME280;3009;43.224;27.976;2023-01-27T06:11:29;99754.19;;;7.01;100.00
5966;BME280;3009;43.224;27.976;2023-01-27T06:13:58;99764.06;;;7.01;100.00
5966;BME280;3009;43.224;27.976;2023-01-27T06:16:26;99751.53;;;7.01;100.00
5966;BME280;3009;43.224;27.976;2023-01-27T06:18:55;99750.03;;;7.09;100.00
5966;BME280;3009;43.224;27.976;2023-01-27T06:21:24;99749.25;;;7.08;100.00
5966;BME280;3009;43.224;27.976;2023-01-27T06:23:52;99751.09;;;7.08;100.00
5966;BME280;3009;43.224;27.976;2023-01-27T06:26:21;99732.16;;;7.09;100.00
5966;BME280;3009;43.224;27.976;2023-01-27T06:28:49;99724.34;;;7.13;100.00
5966;BME280;3009;43.224;27.976;2023-01-27T06:31:20;99726.41;;;7.16;100.00
5966;BME280;3009;43.224;27.976;2023-01-27T06:33:49;99721.88;;;7.17;100.00
5966;BME280;3009;43.224;27.976;2023-01-27T06:36:19;99709.81;;;7.19;100.00
5966;BME280;3009;43.224;27.976;2023-01-27T06:38:48;99706.25;;;7.24;100.00
5966;BME280;3009;43.224;27.976;2023-01-27T06:41:17;99714.72;;;7.26;100.00
5966;BME280;3009;43.224;27.976;2023-01-27T06:43:45;99720.34;;;7.24;100.00
5966;BME280;3009;43.224;27.976;2023-01-27T06:46:13;99697.47;;;7.23;100.00
5966;BME280;3009;43.224;27.976;2023-01-27T06:48:43;99705.47;;;7.23;100.00
5966;BME280;3009;43.224;27.976;2023-01-27T06:51:11;99702.69;;;7.28;100.00
5966;BME280;3009;43.224;27.976;2023-01-27T06:53:40;99710.06;;;7.32;100.00
5966;BME280;3009;43.224;27.976;2023-01-27T06:56:08;99716.19;;;7.32;100.00
5966;BME280;3009;43.224;27.976;2023-01-27T06:58:36;99721.50;;;7.32;100.00
5966;BME280;3009;43.224;27.976;2023-01-27T07:01:05;99733.00;;;7.33;100.00
5966;BME280;3009;43.224;27.976;2023-01-27T07:03:33;99723.78;;;7.39;100.00
5966;BME280;3009;43.224;27.976;2023-01-27T07:06:03;99728.13;;;7.35;100.00
5966;BME280;3009;43.224;27.976;2023-01-27T07:08:31;99728.94;;;7.35;100.00
5966;BME280;3009;43.224;27.976;2023-01-27T07:11:01;99729.72;;;7.36;100.00
5966;BME280;3009;43.224;27.976;2023-01-27T07:13:30;99729.13;;;7.39;100.00
5966;BME280;3009;43.224;27.976;2023-01-27T07:15:59;99727.34;;;7.34;100.00
5966;BME280;3009;43.224;27.976;2023-01-27T07:18:29;99702.28;;;7.35;100.00
5966;BME280;3009;43.224;27.976;2023-01-27T07:20:59;99703.66;;;7.33;100.00
5966;BME280;3009;43.224;27.976;2023-01-27T07:23:30;99717.53;;;7.43;100.00
5966;BME280;3009;43.224;27.976;2023-01-27T07:26:00;99732.47;;;7.44;100.00
5966;BME280;3009;43.224;27.976;2023-01-27T07:28:41;99718.00;;;7.45;100.00
5966;BME280;3009;43.224;27.976;2023-01-27T07:31:09;99715.66;;;7.44;100.00
5966;BME280;3009;43.224;27.976;2023-01-27T07:33:38;99719.28;;;7.48;100.00
5966;BME280;3009;43.224;27.976;2023-01-27T07:36:06;99702.00;;;7.45;100.00
5966;BME280;3009;43.224;27.976;2023-01-27T07:38:36;99701.28;;;7.54;100.00
5966;BME280;3009;43.224;27.976;2023-01-27T07:41:06;99687.34;;;7.57;100.00
5966;BME280;3009;43.224;27.976;2023-01-27T07:43:34;99693.00;;;7.55;100.00
5966;BME280;3009;43.224;27.976;2023-01-27T07:46:02;99689.34;;;7.51;100.00
5966;BME280;3009;43.224;27.976;2023-01-27T07:48:30;99704.44;;;7.56;100.00
5966;BME280;3009;43.224;27.976;2023-01-27T07:50:59;99701.47;;;7.57;100.00
5966;BME280;3009;43.224;27.976;2023-01-27T07:53:28;99699.94;;;7.65;100.00
5966;BME280;3009;43.224;27.976;2023-01-27T07:55:59;99697.59;;;7.63;100.00
5966;BME280;3009;43.224;27.976;2023-01-27T07:58:27;99699.78;;;7.61;100.00
5966;BME280;3009;43.224;27.976;2023-01-27T08:00:56;99697.72;;;7.58;100.00
5966;BME280;3009;43.224;27.976;2023-01-27T08:03:24;99696.13;;;7.57;100.00
5966;BME280;3009;43.224;27.976;2023-01-27T08:05:53;99674.97;;;7.61;100.00
5966;BME280;3009;43.224;27.976;2023-01-27T08:08:21;99672.63;;;7.59;100.00
5966;BME280;3009;43.224;27.976;2023-01-27T08:10:49;99681.56;;;7.63;100.00
5966;BME280;3009;43.224;27.976;2023-01-27T08:13:19;99682.19;;;7.60;100.00
5966;BME280;3009;43.224;27.976;2023-01-27T08:15:47;99682.84;;;7.66;100.00
5966;BME280;3009;43.224;27.976;2023-01-27T08:18:15;99690.69;;;7.62;100.00
5966;BME280;3009;43.224;27.976;2023-01-27T08:20:43;99679.22;;;7.62;100.00
5966;BME280;3009;43.224;27.976;2023-01-27T08:23:11;99679.25;;;7.71;100.00
5966;BME280;3009;43.224;27.976;2023-01-27T08:25:40;99674.84;;;7.66;100.00
5966;BME280;3009;43.224;27.976;2023-01-27T08:28:08;99678.78;;;7.69;100.00
5966;BME280;3009;43.224;27.976;2023-01-27T08:30:37;99659.28;;;7.59;100.00
5966;BME280;3009;43.224;27.976;2023-01-27T08:33:05;99655.38;;;7.66;100.00
5966;BME280;3009;43.224;27.976;2023-01-27T08:35:34;99657.75;;;7.67;100.00
5966;BME280;3009;43.224;27.976;2023-01-27T08:38:02;99649.09;;;7.61;100.00
5966;BME280;3009;43.224;27.976;2023-01-27T08:40:31;99648.16;;;7.66;100.00
5966;BME280;3009;43.224;27.976;2023-01-27T08:42:59;99645.84;;;7.73;100.00
5966;BME280;3009;43.224;27.976;2023-01-27T08:45:30;99627.94;;;7.74;100.00
5966;BME280;3009;43.224;27.976;2023-01-27T08:48:00;99625.75;;;7.76;100.00
5966;BME280;3009;43.224;27.976;2023-01-27T08:50:29;99627.47;;;7.72;100.00
5966;BME280;3009;43.224;27.976;2023-01-27T08:52:57;99626.38;;;7.73;100.00
5966;BME280;3009;43.224;27.976;2023-01-27T08:55:27;99612.41;;;7.67;100.00
5966;BME280;3009;43.224;27.976;2023-01-27T08:57:55;99619.47;;;7.72;100.00
5966;BME280;3009;43.224;27.976;2023-01-27T09:00:24;99616.97;;;7.75;100.00
5966;BME280;3009;43.224;27.976;2023-01-27T09:02:52;99607.22;;;7.71;100.00
5966;BME280;3009;43.224;27.976;2023-01-27T09:05:21;99602.66;;;7.71;100.00
5966;BME280;3009;43.224;27.976;2023-01-27T09:07:50;99616.84;;;7.80;100.00
5966;BME280;3009;43.224;27.976;2023-01-27T09:10:18;99603.94;;;7.74;100.00
5966;BME280;3009;43.224;27.976;2023-01-27T09:12:47;99596.41;;;7.76;100.00
5966;BME280;3009;43.224;27.976;2023-01-27T09:15:15;99580.63;;;7.88;100.00
5966;BME280;3009;43.224;27.976;2023-01-27T09:17:43;99568.19;;;7.92;100.00
5966;BME280;3009;43.224;27.976;2023-01-27T09:20:13;99558.28;;;7.84;100.00
5966;BME280;3009;43.224;27.976;2023-01-27T09:22:43;99548.91;;;7.87;100.00
5966;BME280;3009;43.224;27.976;2023-01-27T09:25:13;99536.47;;;7.91;100.00
5966;BME280;3009;43.224;27.976;2023-01-27T09:27:42;99535.88;;;7.85;100.00
5966;BME280;3009;43.224;27.976;2023-01-27T09:30:12;99530.22;;;7.95;100.00
5966;BME280;3009;43.224;27.976;2023-01-27T09:32:42;99529.75;;;7.93;100.00
5966;BME280;3009;43.224;27.976;2023-01-27T09:35:10;99538.09;;;8.01;100.00
5966;BME280;3009;43.224;27.976;2023-01-27T09:37:43;99521.59;;;8.07;100.00
5966;BME280;3009;43.224;27.976;2023-01-27T09:40:28;99529.59;;;8.07;100.00
5966;BME280;3009;43.224;27.976;2023-01-27T09:43:14;99535.44;;;8.18;100.00
5966;BME280;3009;43.224;27.976;2023-01-27T09:46:03;99558.31;;;8.02;100.00
5966;BME280;3009;43.224;27.976;2023-01-27T09:48:48;99579.84;;;7.96;100.00
5966;BME280;3009;43.224;27.976;2023-01-27T09:51:28;99581.72;;;7.96;100.00
5966;BME280;3009;43.224;27.976;2023-01-27T09:54:18;99587.69;;;7.93;100.00
5966;BME280;3009;43.224;27.976;2023-01-27T09:56:52;99597.09;;;7.90;100.00
5966;BME280;3009;43.224;27.976;2023-01-27T09:59:36;99598.38;;;7.93;100.00
5966;BME280;3009;43.224;27.976;2023-01-27T10:02:29;99594.56;;;7.85;100.00
5966;BME280;3009;43.224;27.976;2023-01-27T10:08:20;99608.19;;;7.75;100.00
5966;BME280;3009;43.224;27.976;2023-01-27T10:11:11;99600.03;;;7.80;100.00
5966;BME280;3009;43.224;27.976;2023-01-27T10:13:53;99592.19;;;7.75;100.00
5966;BME280;3009;43.224;27.976;2023-01-27T10:16:37;99579.13;;;7.73;100.00
5966;BME280;3009;43.224;27.976;2023-01-27T10:19:20;99567.34;;;7.66;100.00
5966;BME280;3009;43.224;27.976;2023-01-27T10:21:58;99563.56;;;7.67;100.00
5966;BME280;3009;43.224;27.976;2023-01-27T10:24:43;99554.00;;;7.66;100.00
5966;BME280;3009;43.224;27.976;2023-01-27T10:27:21;99537.19;;;7.65;100.00
5966;BME280;3009;43.224;27.976;2023-01-27T10:29:55;99515.06;;;7.65;100.00
5966;BME280;3009;43.224;27.976;2023-01-27T10:32:26;99506.44;;;7.68;100.00
5966;BME280;3009;43.224;27.976;2023-01-27T10:35:07;99495.94;;;7.71;100.00
5966;BME280;3009;43.224;27.976;2023-01-27T10:37:44;99502.09;;;7.80;100.00
5966;BME280;3009;43.224;27.976;2023-01-27T10:40:19;99487.81;;;7.85;100.00
5966;BME280;3009;43.224;27.976;2023-01-27T10:42:57;99489.06;;;7.88;100.00
5966;BME280;3009;43.224;27.976;2023-01-27T10:45:31;99485.31;;;7.97;100.00
5966;BME280;3009;43.224;27.976;2023-01-27T10:48:17;99481.72;;;8.02;100.00
5966;BME280;3009;43.224;27.976;2023-01-27T10:50:51;99463.19;;;8.06;100.00
5966;BME280;3009;43.224;27.976;2023-01-27T10:53:26;99452.19;;;8.16;100.00
5966;BME280;3009;43.224;27.976;2023-01-27T10:55:59;99451.09;;;8.26;100.00
5966;BME280;3009;43.224;27.976;2023-01-27T10:58:42;99453.78;;;8.26;100.00
5966;BME280;3009;43.224;27.976;2023-01-27T11:01:16;99447.63;;;8.34;100.00
5966;BME280;3009;43.224;27.976;2023-01-27T11:03:52;99431.47;;;8.30;100.00
5966;BME280;3009;43.224;27.976;2023-01-27T11:06:23;99417.47;;;8.33;100.00
5966;BME280;3009;43.224;27.976;2023-01-27T11:08:54;99415.13;;;8.32;100.00
5966;BME280;3009;43.224;27.976;2023-01-27T11:11:26;99409.44;;;8.42;100.00
5966;BME280;3009;43.224;27.976;2023-01-27T11:14:21;99403.81;;;8.44;100.00
5966;BME280;3009;43.224;27.976;2023-01-27T11:16:54;99382.59;;;8.39;100.00
5966;BME280;3009;43.224;27.976;2023-01-27T11:19:34;99377.56;;;8.46;100.00
5966;BME280;3009;43.224;27.976;2023-01-27T11:22:14;99371.75;;;8.44;100.00
5966;BME280;3009;43.224;27.976;2023-01-27T11:24:46;99345.97;;;8.48;100.00
5966;BME280;3009;43.224;27.976;2023-01-27T11:27:24;99357.09;;;8.59;100.00
5966;BME280;3009;43.224;27.976;2023-01-27T11:29:59;99354.00;;;8.48;100.00
5966;BME280;3009;43.224;27.976;2023-01-27T11:32:40;99324.78;;;8.51;100.00
5966;BME280;3009;43.224;27.976;2023-01-27T11:35:14;99325.25;;;8.45;100.00
5966;BME280;3009;43.224;27.976;2023-01-27T11:37:44;99320.66;;;8.54;100.00
5966;BME280;3009;43.224;27.976;2023-01-27T11:40:16;99327.91;;;8.54;100.00
5966;BME280;3009;43.224;27.976;2023-01-27T11:42:45;99329.16;;;8.56;100.00
5966;BME280;3009;43.224;27.976;2023-01-27T11:45:19;99354.41;;;8.67;100.00
5966;BME280;3009;43.224;27.976;2023-01-27T11:47:51;99334.00;;;8.54;100.00
5966;BME280;3009;43.224;27.976;2023-01-27T11:50:32;99320.97;;;8.52;100.00
5966;BME280;3009;43.224;27.976;2023-01-27T11:53:10;99338.59;;;8.54;100.00
5966;BME280;3009;43.224;27.976;2023-01-27T11:55:41;99334.19;;;8.49;100.00
5966;BME280;3009;43.224;27.976;2023-01-27T11:58:16;99320.50;;;8.42;100.00
5966;BME280;3009;43.224;27.976;2023-01-27T12:00:53;99324.47;;;8.36;100.00
5966;BME280;3009;43.224;27.976;2023-01-27T12:03:27;99334.34;;;8.44;100.00
5966;BME280;3009;43.224;27.976;2023-01-27T12:06:01;99325.22;;;8.54;100.00
5966;BME280;3009;43.224;27.976;2023-01-27T12:08:39;99317.44;;;8.69;100.00
5966;BME280;3009;43.224;27.976;2023-01-27T12:11:24;99325.75;;;8.77;100.00
5966;BME280;3009;43.224;27.976;2023-01-27T12:13:55;99333.56;;;8.91;100.00
5966;BME280;3009;43.224;27.976;2023-01-27T12:16:42;99313.00;;;8.82;100.00
5966;BME280;3009;43.224;27.976;2023-01-27T12:19:22;99308.06;;;8.93;100.00
5966;BME280;3009;43.224;27.976;2023-01-27T12:21:55;99282.53;;;8.75;100.00
5966;BME280;3009;43.224;27.976;2023-01-27T12:24:27;99289.91;;;8.78;100.00
5966;BME280;3009;43.224;27.976;2023-01-27T12:26:57;99293.59;;;8.64;100.00
5966;BME280;3009;43.224;27.976;2023-01-27T12:29:34;99304.38;;;8.77;100.00
5966;BME280;3009;43.224;27.976;2023-01-27T12:32:13;99305.31;;;8.81;100.00
5966;BME280;3009;43.224;27.976;2023-01-27T12:34:45;99299.66;;;8.74;100.00
5966;BME280;3009;43.224;27.976;2023-01-27T12:37:22;99298.25;;;8.76;100.00
5966;BME280;3009;43.224;27.976;2023-01-27T12:39:54;99276.63;;;8.90;100.00
5966;BME280;3009;43.224;27.976;2023-01-27T12:42:34;99285.94;;;8.84;100.00
5966;BME280;3009;43.224;27.976;2023-01-27T12:45:21;99270.75;;;8.76;100.00
5966;BME280;3009;43.224;27.976;2023-01-27T12:48:00;99293.03;;;8.80;100.00
5966;BME280;3009;43.224;27.976;2023-01-27T12:50:30;99298.75;;;8.69;100.00
5966;BME280;3009;43.224;27.976;2023-01-27T12:53:05;99288.56;;;8.63;100.00
5966;BME280;3009;43.224;27.976;2023-01-27T12:55:34;99331.41;;;8.75;100.00
5966;BME280;3009;43.224;27.976;2023-01-27T12:58:03;99330.81;;;8.69;100.00
5966;BME280;3009;43.224;27.976;2023-01-27T13:00:33;99326.41;;;8.74;100.00
5966;BME280;3009;43.224;27.976;2023-01-27T13:03:06;99312.91;;;8.70;100.00
5966;BME280;3009;43.224;27.976;2023-01-27T13:05:40;99324.56;;;8.65;100.00
5966;BME280;3009;43.224;27.976;2023-01-27T13:08:14;99315.94;;;8.60;100.00
5966;BME280;3009;43.224;27.976;2023-01-27T13:10:51;99326.19;;;8.49;100.00
5966;BME280;3009;43.224;27.976;2023-01-27T13:13:23;99326.19;;;8.49;100.00
5966;BME280;3009;43.224;27.976;2023-01-27T13:15:55;99328.22;;;8.43;100.00
5966;BME280;3009;43.224;27.976;2023-01-27T13:18:32;99331.84;;;8.39;100.00
5966;BME280;3009;43.224;27.976;2023-01-27T13:21:08;99335.75;;;8.41;100.00
5966;BME280;3009;43.224;27.976;2023-01-27T13:23:38;99331.69;;;8.44;100.00
5966;BME280;3009;43.224;27.976;2023-01-27T13:26:13;99325.06;;;8.41;100.00
5966;BME280;3009;43.224;27.976;2023-01-27T13:28:45;99350.22;;;8.49;100.00
5966;BME280;3009;43.224;27.976;2023-01-27T13:31:27;99349.28;;;8.54;100.00
5966;BME280;3009;43.224;27.976;2023-01-27T13:34:04;99330.41;;;8.41;100.00
5966;BME280;3009;43.224;27.976;2023-01-27T13:36:40;99335.94;;;8.45;100.00
5966;BME280;3009;43.224;27.976;2023-01-27T13:39:17;99349.28;;;8.36;100.00